Time;durP1;ratioP1;P1;durP2;ratioP2;P2;SDS_P1;SDS_P2;PMS_P1;PMS_P2;Temp;Humidity;BMP_temperature;BMP_pressure;BME280_temperature;BME280_humidity;BME280_pressure;Samples;Min_cycle;Max_cycle;Signal;HPM_P1;HPM_P2
2022/07/21 00:00:23;;;;;;;19.13;13.23;;;;;;;;;;6127769;23;21211;-86
2022/07/21 00:02:50;;;;;;;17.70;12.38;;;;;;;;;;6126219;23;20033;-86
2022/07/21 00:05:18;;;;;;;16.92;12.43;;;;;;;;;;6126129;23;20740;-85
2022/07/21 00:07:45;;;;;;;20.00;12.73;;;;;;;;;;6125583;23;20763;-86
2022/07/21 00:10:15;;;;;;;13.50;11.25;;;;;;;;;;6126117;23;20025;-85
2022/07/21 00:12:43;;;;;;;13.90;10.43;;;;;;;;;;6126875;23;20093;-85
2022/07/21 00:15:16;;;;;;;17.58;10.13;;;;;;;;;;6125070;23;20445;-85
2022/07/21 00:17:43;;;;;;;19.57;12.03;;;;;;;;;;6126591;23;20030;-85
2022/07/21 00:20:14;;;;;;;12.70;10.60;;;;;;;;;;6128080;23;20046;-86
2022/07/21 00:22:42;;;;;;;11.38;9.00;;;;;;;;;;6128413;23;20023;-83
2022/07/21 00:25:11;;;;;;;12.43;9.10;;;;;;;;;;6126267;23;20069;-85
2022/07/21 00:27:40;;;;;;;12.35;8.23;;;;;;;;;;6125977;23;20762;-84
2022/07/21 00:30:10;;;;;;;11.93;8.25;;;;;;;;;;6126371;23;20465;-84
2022/07/21 00:32:41;;;;;;;13.45;8.63;;;;;;;;;;6126193;23;20015;-83
2022/07/21 00:35:11;;;;;;;14.57;8.10;;;;;;;;;;6128444;23;20464;-84
2022/07/21 00:37:40;;;;;;;11.80;7.72;;;;;;;;;;6127035;23;20030;-84
2022/07/21 00:40:09;;;;;;;12.63;7.60;;;;;;;;;;6125123;23;20033;-84
2022/07/21 00:42:38;;;;;;;11.18;7.53;;;;;;;;;;6125428;23;20082;-84
2022/07/21 00:45:12;;;;;;;10.73;7.68;;;;;;;;;;6126274;23;20030;-84
2022/07/21 00:47:40;;;;;;;9.77;6.97;;;;;;;;;;6127604;23;20030;-86
2022/07/21 00:50:16;;;;;;;9.43;7.28;;;;;;;;;;6126535;23;20724;-85
2022/07/21 00:52:44;;;;;;;10.60;8.05;;;;;;;;;;6125508;23;20023;-85
2022/07/21 00:55:14;;;;;;;11.07;7.07;;;;;;;;;;6126508;23;20018;-85
2022/07/21 00:57:42;;;;;;;10.93;6.90;;;;;;;;;;6128317;23;20503;-85
2022/07/21 01:00:13;;;;;;;10.52;7.80;;;;;;;;;;6126085;23;20026;-85
2022/07/21 01:02:40;;;;;;;10.38;7.95;;;;;;;;;;6127676;23;20033;-84
2022/07/21 01:05:15;;;;;;;12.60;7.43;;;;;;;;;;6125996;23;20029;-84
2022/07/21 01:07:49;;;;;;;10.93;7.75;;;;;;;;;;6126243;23;20026;-85
2022/07/21 01:10:17;;;;;;;10.20;7.57;;;;;;;;;;6127259;23;20039;-86
2022/07/21 01:12:45;;;;;;;12.63;7.45;;;;;;;;;;6126411;23;20022;-85
2022/07/21 01:15:18;;;;;;;10.85;7.45;;;;;;;;;;6126264;23;20027;-86
2022/07/21 01:17:50;;;;;;;12.02;8.20;;;;;;;;;;6127401;23;20476;-84
2022/07/21 01:20:20;;;;;;;12.68;8.48;;;;;;;;;;6125408;23;20025;-84
2022/07/21 01:22:55;;;;;;;10.15;7.38;;;;;;;;;;6125721;23;20025;-84
2022/07/21 01:25:26;;;;;;;14.40;8.05;;;;;;;;;;6125108;23;20069;-84
2022/07/21 01:27:53;;;;;;;9.63;7.57;;;;;;;;;;6126301;23;20022;-84
2022/07/21 01:30:20;;;;;;;9.82;7.90;;;;;;;;;;6125060;23;20397;-84
2022/07/21 01:32:52;;;;;;;10.60;7.60;;;;;;;;;;6125979;23;20019;-84
2022/07/21 01:35:22;;;;;;;12.55;7.43;;;;;;;;;;6125410;23;20026;-84
2022/07/21 01:37:55;;;;;;;11.63;7.72;;;;;;;;;;6127421;23;20118;-86
2022/07/21 01:43:12;;;;;;;9.80;7.85;;;;;;;;;;6127178;23;20036;-85
2022/07/21 01:45:44;;;;;;;10.50;7.30;;;;;;;;;;6126020;23;20832;-85
2022/07/21 01:48:14;;;;;;;11.60;8.60;;;;;;;;;;6125488;23;20023;-85
2022/07/21 01:50:45;;;;;;;13.10;9.02;;;;;;;;;;6125894;23;20117;-86
2022/07/21 01:53:19;;;;;;;12.57;9.07;;;;;;;;;;6126769;23;20424;-86
2022/07/21 01:55:46;;;;;;;11.88;8.15;;;;;;;;;;6126195;23;20030;-85
2022/07/21 01:58:17;;;;;;;11.75;9.10;;;;;;;;;;6127393;23;20022;-85
2022/07/21 02:00:47;;;;;;;10.93;8.88;;;;;;;;;;6125822;23;20021;-85
2022/07/21 02:03:16;;;;;;;13.95;9.68;;;;;;;;;;6125795;23;20050;-85
2022/07/21 02:05:43;;;;;;;11.25;8.48;;;;;;;;;;6127190;23;20034;-85
2022/07/21 02:08:19;;;;;;;10.50;7.72;;;;;;;;;;6125406;23;20027;-84
2022/07/21 02:10:46;;;;;;;10.32;8.25;;;;;;;;;;6125287;23;20026;-85
2022/07/21 02:13:17;;;;;;;14.60;10.02;;;;;;;;;;6125326;23;20105;-85
2022/07/21 02:15:50;;;;;;;12.10;9.75;;;;;;;;;;6125914;23;20026;-84
2022/07/21 02:18:17;;;;;;;14.70;10.07;;;;;;;;;;6125934;23;20018;-85
2022/07/21 02:20:47;;;;;;;17.10;10.98;;;;;;;;;;6125499;23;20014;-85
2022/07/21 02:23:15;;;;;;;13.23;9.85;;;;;;;;;;6127634;23;20030;-86
2022/07/21 02:25:42;;;;;;;20.42;11.30;;;;;;;;;;6125317;23;20486;-85
2022/07/21 02:28:10;;;;;;;19.55;11.45;;;;;;;;;;6127012;23;20460;-85
2022/07/21 02:30:43;;;;;;;17.73;11.93;;;;;;;;;;6127181;23;20074;-85
2022/07/21 02:33:10;;;;;;;21.77;11.85;;;;;;;;;;6127874;23;20018;-85
2022/07/21 02:35:38;;;;;;;16.02;11.18;;;;;;;;;;6127343;23;20038;-85
2022/07/21 02:38:07;;;;;;;16.88;12.95;;;;;;;;;;6126811;23;20494;-85
2022/07/21 02:40:34;;;;;;;17.52;11.48;;;;;;;;;;6126471;23;20026;-85
2022/07/21 02:43:02;;;;;;;19.45;12.80;;;;;;;;;;6126205;23;20496;-85
2022/07/21 02:45:29;;;;;;;16.52;12.73;;;;;;;;;;6127119;23;20033;-84
2022/07/21 02:48:00;;;;;;;17.17;12.50;;;;;;;;;;6125780;23;20026;-85
2022/07/21 02:50:33;;;;;;;14.63;11.50;;;;;;;;;;6127439;23;20019;-84
2022/07/21 02:53:07;;;;;;;19.25;14.68;;;;;;;;;;6127084;23;20023;-85
2022/07/21 02:55:44;;;;;;;20.40;14.88;;;;;;;;;;6126750;23;20033;-84
2022/07/21 02:58:17;;;;;;;18.52;14.00;;;;;;;;;;6126318;23;20792;-85
2022/07/21 03:00:46;;;;;;;18.42;13.38;;;;;;;;;;6126190;23;20019;-85
2022/07/21 03:03:16;;;;;;;19.65;15.52;;;;;;;;;;6128742;23;20030;-85
2022/07/21 03:05:43;;;;;;;22.42;15.35;;;;;;;;;;6126687;23;20456;-85
2022/07/21 03:08:11;;;;;;;21.60;16.05;;;;;;;;;;6127888;23;20018;-85
2022/07/21 03:10:40;;;;;;;21.27;15.73;;;;;;;;;;6126629;23;20111;-85
2022/07/21 03:13:07;;;;;;;24.52;15.88;;;;;;;;;;6127157;23;20037;-85
2022/07/21 03:15:37;;;;;;;18.15;14.18;;;;;;;;;;6127289;23;20068;-84
2022/07/21 03:18:07;;;;;;;25.52;16.35;;;;;;;;;;6128231;23;20042;-85
2022/07/21 03:20:51;;;;;;;25.27;16.95;;;;;;;;;;6127145;23;20751;-85
2022/07/21 03:23:19;;;;;;;24.17;16.45;;;;;;;;;;6126055;23;20480;-85
2022/07/21 03:25:47;;;;;;;21.30;14.85;;;;;;;;;;6126770;23;20033;-85
2022/07/21 03:28:14;;;;;;;24.27;17.63;;;;;;;;;;6126775;23;20455;-85
2022/07/21 03:30:42;;;;;;;25.50;16.92;;;;;;;;;;6126528;23;20015;-85
2022/07/21 03:33:09;;;;;;;26.35;17.60;;;;;;;;;;6128172;23;20037;-85
2022/07/21 03:35:36;;;;;;;26.38;17.77;;;;;;;;;;6126615;23;20086;-85
2022/07/21 03:38:11;;;;;;;26.70;16.35;;;;;;;;;;6127083;23;20018;-85
2022/07/21 03:40:39;;;;;;;24.60;16.92;;;;;;;;;;6126582;23;20436;-84
2022/07/21 03:43:09;;;;;;;26.25;18.02;;;;;;;;;;6126610;23;20026;-84
2022/07/21 03:45:39;;;;;;;20.75;15.23;;;;;;;;;;6128315;23;20034;-85
2022/07/21 03:48:10;;;;;;;22.05;14.57;;;;;;;;;;6127351;23;20025;-84
2022/07/21 03:50:42;;;;;;;22.77;15.82;;;;;;;;;;6133929;23;20052;-84
2022/07/21 03:53:20;;;;;;;22.25;16.92;;;;;;;;;;6135123;23;20553;-84
2022/07/21 03:55:47;;;;;;;28.10;17.83;;;;;;;;;;6136203;23;20859;-84
2022/07/21 03:58:15;;;;;;;27.70;17.23;;;;;;;;;;6134276;23;20014;-84
2022/07/21 04:00:43;;;;;;;22.02;15.85;;;;;;;;;;6131061;23;20097;-85
2022/07/21 04:03:11;;;;;;;20.25;14.73;;;;;;;;;;6126698;23;20088;-85
2022/07/21 04:05:39;;;;;;;21.13;15.57;;;;;;;;;;6127599;23;20725;-84
2022/07/21 04:08:10;;;;;;;20.42;15.32;;;;;;;;;;6126384;23;20783;-85
2022/07/21 04:10:39;;;;;;;27.33;16.65;;;;;;;;;;6126769;23;20030;-85
2022/07/21 04:13:10;;;;;;;24.25;16.25;;;;;;;;;;6125893;23;20022;-85
2022/07/21 04:15:38;;;;;;;25.25;15.98;;;;;;;;;;6126245;23;20102;-85
2022/07/21 04:18:08;;;;;;;26.50;16.80;;;;;;;;;;6126351;23;20046;-84
2022/07/21 04:20:39;;;;;;;25.80;17.33;;;;;;;;;;6127689;23;20030;-84
2022/07/21 04:23:06;;;;;;;27.00;17.38;;;;;;;;;;6126712;23;20492;-84
2022/07/21 04:25:38;;;;;;;23.17;17.23;;;;;;;;;;6128254;23;20093;-85
2022/07/21 04:28:11;;;;;;;26.20;17.43;;;;;;;;;;6126824;23;20030;-84
2022/07/21 04:30:39;;;;;;;24.70;16.92;;;;;;;;;;6126575;23;20030;-84
2022/07/21 04:33:08;;;;;;;27.90;19.27;;;;;;;;;;6125861;23;20051;-85
2022/07/21 04:35:36;;;;;;;29.10;19.20;;;;;;;;;;6126070;23;20536;-85
2022/07/21 04:38:03;;;;;;;29.73;17.80;;;;;;;;;;6125965;23;20460;-85
2022/07/21 04:40:30;;;;;;;26.70;18.83;;;;;;;;;;6126437;23;20029;-85
2022/07/21 04:43:09;;;;;;;30.75;18.83;;;;;;;;;;6125766;23;20023;-85
2022/07/21 04:45:38;;;;;;;29.33;19.38;;;;;;;;;;6126829;23;20034;-85
2022/07/21 04:48:06;;;;;;;27.48;17.83;;;;;;;;;;6125443;23;20082;-84
2022/07/21 04:50:33;;;;;;;30.60;18.13;;;;;;;;;;6128752;23;20027;-85
2022/07/21 04:53:00;;;;;;;26.42;17.58;;;;;;;;;;6126646;23;20031;-85
2022/07/21 04:55:28;;;;;;;29.02;18.25;;;;;;;;;;6127819;23;20019;-85
2022/07/21 04:58:13;;;;;;;35.50;19.38;;;;;;;;;;6126449;23;20015;-84
2022/07/21 05:00:47;;;;;;;32.45;19.27;;;;;;;;;;6126532;23;20113;-85
2022/07/21 05:03:15;;;;;;;29.13;19.58;;;;;;;;;;6125336;23;20014;-85
2022/07/21 05:05:42;;;;;;;27.05;18.27;;;;;;;;;;6127085;23;20026;-84
2022/07/21 05:08:12;;;;;;;27.25;19.30;;;;;;;;;;6125204;23;20054;-85
2022/07/21 05:10:39;;;;;;;32.58;19.60;;;;;;;;;;6125263;23;20018;-85
2022/07/21 05:13:15;;;;;;;34.22;20.65;;;;;;;;;;6127582;23;20022;-85
2022/07/21 05:15:45;;;;;;;31.83;19.85;;;;;;;;;;6125859;23;20073;-85
2022/07/21 05:18:12;;;;;;;28.30;20.67;;;;;;;;;;6125448;23;20361;-84
2022/07/21 05:20:39;;;;;;;32.00;21.58;;;;;;;;;;6126226;23;20610;-84
2022/07/21 05:23:08;;;;;;;38.15;22.90;;;;;;;;;;6125171;23;20146;-84
2022/07/21 05:25:44;;;;;;;31.25;22.73;;;;;;;;;;6125394;23;20065;-85
2022/07/21 05:28:15;;;;;;;38.58;22.60;;;;;;;;;;6124429;23;20457;-84
2022/07/21 05:30:47;;;;;;;33.80;22.80;;;;;;;;;;6126711;23;20018;-85
2022/07/21 05:33:36;;;;;;;33.47;22.17;;;;;;;;;;6124300;23;20027;-84
2022/07/21 05:36:12;;;;;;;;;;;;;;;;;;6126110;23;20057;-85
2022/07/21 05:38:52;;;;;;;;;;;;;;;;;;;;;
2022/07/21 05:41:32;;;;;;;33.65;23.33;;;;;;;;;;6127751;23;20023;-84
2022/07/21 05:43:59;;;;;;;37.05;21.90;;;;;;;;;;6125554;23;20030;-84
2022/07/21 05:46:33;;;;;;;31.88;22.08;;;;;;;;;;6123565;23;20721;-84
2022/07/21 05:49:03;;;;;;;31.02;20.52;;;;;;;;;;6125393;23;20026;-84
2022/07/21 05:51:36;;;;;;;30.13;19.15;;;;;;;;;;6125346;23;20297;-84
2022/07/21 05:54:15;;;;;;;35.17;19.05;;;;;;;;;;6126436;23;20033;-84
2022/07/21 05:56:51;;;;;;;34.83;20.05;;;;;;;;;;6126298;23;20030;-84
2022/07/21 05:59:24;;;;;;;26.00;18.42;;;;;;;;;;6125645;23;20506;-83
2022/07/21 06:01:52;;;;;;;30.55;19.10;;;;;;;;;;6124743;23;20023;-84
2022/07/21 06:04:24;;;;;;;25.42;17.90;;;;;;;;;;6126377;23;20815;-83
2022/07/21 06:07:05;;;;;;;30.10;18.15;;;;;;;;;;6128202;23;20050;-84
2022/07/21 06:09:32;;;;;;;29.52;17.60;;;;;;;;;;6126206;23;20045;-83
2022/07/21 06:12:05;;;;;;;26.77;18.38;;;;;;;;;;6128002;23;20015;-84
2022/07/21 06:14:36;;;;;;;29.00;17.88;;;;;;;;;;6128707;23;20026;-83
2022/07/21 06:17:18;;;;;;;27.13;17.80;;;;;;;;;;6127384;23;20823;-83
2022/07/21 06:19:50;;;;;;;28.70;16.83;;;;;;;;;;6126682;23;20094;-83
2022/07/21 06:22:17;;;;;;;29.08;17.20;;;;;;;;;;6128376;23;20022;-83
2022/07/21 06:24:50;;;;;;;28.45;17.00;;;;;;;;;;6127806;23;20026;-85
2022/07/21 06:27:25;;;;;;;23.83;16.23;;;;;;;;;;6128017;23;20550;-84
2022/07/21 06:30:09;;;;;;;28.27;18.25;;;;;;;;;;6128397;23;20357;-84
2022/07/21 06:32:40;;;;;;;29.75;17.55;;;;;;;;;;6125873;23;20334;-84
2022/07/21 06:35:10;;;;;;;28.98;16.95;;;;;;;;;;6126915;23;20041;-84
2022/07/21 06:37:44;;;;;;;25.88;16.40;;;;;;;;;;6126205;23;20030;-85
2022/07/21 06:40:16;;;;;;;24.73;16.05;;;;;;;;;;6126238;23;21130;-84
2022/07/21 06:42:52;;;;;;;27.67;17.45;;;;;;;;;;6124041;23;20030;-84
2022/07/21 06:45:39;;;;;;;30.83;16.80;;;;;;;;;;6127195;23;20792;-84
2022/07/21 06:48:09;;;;;;;29.60;17.17;;;;;;;;;;6126043;23;20037;-84
2022/07/21 06:50:37;;;;;;;29.92;17.35;;;;;;;;;;6128056;23;20057;-84
2022/07/21 06:53:06;;;;;;;26.80;16.75;;;;;;;;;;6126753;23;20026;-85
2022/07/21 06:55:35;;;;;;;27.38;17.30;;;;;;;;;;6128377;23;20065;-84
2022/07/21 06:58:29;;;;;;;33.17;18.92;;;;;;;;;;6126586;23;20106;-84
2022/07/21 07:01:07;;;;;;;37.35;19.98;;;;;;;;;;6128151;23;20029;-84
2022/07/21 07:03:41;;;;;;;32.40;18.92;;;;;;;;;;6126778;23;20070;-84
2022/07/21 07:06:09;;;;;;;37.15;20.02;;;;;;;;;;6124661;23;20086;-84
2022/07/21 07:08:38;;;;;;;33.90;18.42;;;;;;;;;;6127707;23;20026;-84
2022/07/21 07:11:13;;;;;;;32.88;19.77;;;;;;;;;;6125622;23;20085;-83
2022/07/21 07:13:43;;;;;;;37.17;21.50;;;;;;;;;;6126871;23;20053;-83
2022/07/21 07:16:30;;;;;;;42.85;21.67;;;;;;;;;;6127590;23;20082;-84
2022/07/21 07:18:58;;;;;;;41.80;21.70;;;;;;;;;;6125701;23;20105;-84
2022/07/21 07:21:25;;;;;;;38.70;22.38;;;;;;;;;;6128043;23;20084;-83
2022/07/21 07:23:52;;;;;;;44.42;22.08;;;;;;;;;;6127872;23;20014;-84
2022/07/21 07:26:20;;;;;;;42.88;22.48;;;;;;;;;;6127067;23;20026;-84
2022/07/21 07:28:54;;;;;;;37.92;22.92;;;;;;;;;;6128618;23;20840;-84
2022/07/21 07:31:22;;;;;;;39.78;23.80;;;;;;;;;;6128288;23;20046;-84
2022/07/21 07:33:58;;;;;;;37.80;23.08;;;;;;;;;;6126838;23;20053;-84
2022/07/21 07:36:25;;;;;;;41.40;24.50;;;;;;;;;;6124754;23;20042;-84
2022/07/21 07:38:56;;;;;;;49.53;25.33;;;;;;;;;;6127143;23;20026;-84
2022/07/21 07:41:34;;;;;;;;;;;;;;;;;;;;;
2022/07/21 07:44:11;;;;;;;44.75;24.98;;;;;;;;;;6128779;23;20018;-83
2022/07/21 07:46:46;;;;;;;52.30;27.08;;;;;;;;;;6125639;23;20026;-84
2022/07/21 07:49:15;;;;;;;52.83;28.38;;;;;;;;;;6126888;23;20014;-84
2022/07/21 07:51:45;;;;;;;52.58;27.05;;;;;;;;;;6126686;23;20023;-84
2022/07/21 07:54:12;;;;;;;46.03;26.10;;;;;;;;;;6126451;23;20018;-84
2022/07/21 07:56:47;;;;;;;50.13;26.45;;;;;;;;;;6127998;23;20023;-83
2022/07/21 07:59:15;;;;;;;50.20;27.02;;;;;;;;;;6127358;23;20034;-84
2022/07/21 08:01:43;;;;;;;55.35;27.13;;;;;;;;;;6125965;23;20022;-84
2022/07/21 08:04:10;;;;;;;53.25;26.67;;;;;;;;;;6127089;23;20073;-84
2022/07/21 08:06:37;;;;;;;52.63;28.10;;;;;;;;;;6127325;23;20057;-84
2022/07/21 08:09:05;;;;;;;50.58;28.00;;;;;;;;;;6128483;23;20029;-84
2022/07/21 08:11:32;;;;;;;47.53;27.27;;;;;;;;;;6128253;23;20019;-84
2022/07/21 08:13:59;;;;;;;55.58;28.00;;;;;;;;;;6127242;23;20528;-84
2022/07/21 08:16:26;;;;;;;50.08;26.33;;;;;;;;;;6127727;23;20030;-84
2022/07/21 08:18:54;;;;;;;55.20;26.80;;;;;;;;;;6126072;23;20030;-84
2022/07/21 08:21:21;;;;;;;56.88;27.42;;;;;;;;;;6125255;23;20823;-84
2022/07/21 08:23:48;;;;;;;55.03;28.25;;;;;;;;;;6126218;23;20795;-84
2022/07/21 08:26:16;;;;;;;55.17;27.75;;;;;;;;;;6126439;23;20041;-84
2022/07/21 08:28:49;;;;;;;51.15;28.00;;;;;;;;;;6126324;23;20023;-84
2022/07/21 08:31:26;;;;;;;52.75;27.27;;;;;;;;;;6127505;23;20480;-84
2022/07/21 08:33:54;;;;;;;48.78;28.08;;;;;;;;;;6124518;23;20018;-86
2022/07/21 08:36:22;;;;;;;51.72;24.98;;;;;;;;;;6126574;23;20496;-84
2022/07/21 08:38:54;;;;;;;48.50;25.83;;;;;;;;;;6127351;23;20473;-85
2022/07/21 08:41:24;;;;;;;51.63;25.70;;;;;;;;;;6125799;23;20018;-85
2022/07/21 08:43:53;;;;;;;46.60;24.88;;;;;;;;;;6126789;23;20294;-84
2022/07/21 08:46:24;;;;;;;49.88;27.30;;;;;;;;;;6126713;23;20034;-84
2022/07/21 08:48:52;;;;;;;53.15;26.30;;;;;;;;;;6126824;23;20774;-84
2022/07/21 08:51:22;;;;;;;51.20;26.10;;;;;;;;;;6125849;23;20023;-85
2022/07/21 08:53:49;;;;;;;45.38;25.77;;;;;;;;;;6126276;23;20026;-85
2022/07/21 08:56:17;;;;;;;50.03;26.00;;;;;;;;;;6126422;23;20018;-85
2022/07/21 08:58:45;;;;;;;49.88;25.48;;;;;;;;;;6128414;23;20026;-84
2022/07/21 09:01:12;;;;;;;46.50;25.38;;;;;;;;;;6126278;23;20618;-84
2022/07/21 09:03:42;;;;;;;48.08;25.25;;;;;;;;;;6128250;23;20018;-85
2022/07/21 09:06:11;;;;;;;51.97;25.58;;;;;;;;;;6126190;23;20018;-85
2022/07/21 09:08:48;;;;;;;49.70;25.30;;;;;;;;;;6126467;23;20065;-84
2022/07/21 09:11:21;;;;;;;41.70;24.58;;;;;;;;;;6126709;23;20029;-85
2022/07/21 09:13:53;;;;;;;41.05;23.30;;;;;;;;;;6126534;23;20073;-85
2022/07/21 09:16:38;;;;;;;38.70;22.02;;;;;;;;;;6125864;23;20074;-84
2022/07/21 09:19:06;;;;;;;48.45;24.40;;;;;;;;;;6126400;23;20022;-85
2022/07/21 09:21:37;;;;;;;35.88;18.92;;;;;;;;;;6126075;23;20519;-85
2022/07/21 09:24:18;;;;;;;36.88;19.55;;;;;;;;;;6127753;23;20325;-85
2022/07/21 09:26:59;;;;;;;31.00;16.83;;;;;;;;;;6126497;23;20097;-85
2022/07/21 09:29:41;;;;;;;26.40;15.25;;;;;;;;;;6124968;23;20090;-85
2022/07/21 09:32:36;;;;;;;28.65;14.98;;;;;;;;;;6124857;23;20460;-85
2022/07/21 09:35:13;;;;;;;23.40;13.93;;;;;;;;;;6115175;23;20141;-86
2022/07/21 09:37:41;;;;;;;23.77;11.57;;;;;;;;;;6126566;23;20021;-86
2022/07/21 09:40:17;;;;;;;23.27;11.80;;;;;;;;;;6124768;23;20027;-85
2022/07/21 09:42:51;;;;;;;18.13;10.23;;;;;;;;;;6125261;23;20476;-86
2022/07/21 09:45:20;;;;;;;16.92;10.75;;;;;;;;;;6126540;23;20054;-86
2022/07/21 09:47:47;;;;;;;24.10;11.10;;;;;;;;;;6125766;23;20049;-86
2022/07/21 09:50:20;;;;;;;21.35;10.55;;;;;;;;;;6128155;23;20027;-86
2022/07/21 09:52:57;;;;;;;14.20;7.93;;;;;;;;;;6128270;23;20026;-86
2022/07/21 09:55:25;;;;;;;19.55;9.63;;;;;;;;;;6127904;23;20452;-86
2022/07/21 09:58:04;;;;;;;16.20;8.30;;;;;;;;;;6128234;23;20026;-86
2022/07/21 10:00:31;;;;;;;15.95;8.88;;;;;;;;;;6123638;23;20125;-86
2022/07/21 10:03:04;;;;;;;16.40;7.90;;;;;;;;;;6126975;23;20022;-86
2022/07/21 10:05:36;;;;;;;;;;;;;;;;;;6126902;23;20025;-86
2022/07/21 10:08:03;;;;;;;21.13;7.53;;;;;;;;;;6126410;23;44488;-86
2022/07/21 10:10:36;;;;;;;14.70;6.80;;;;;;;;;;6127797;23;20086;-86
2022/07/21 10:13:23;;;;;;;9.93;6.15;;;;;;;;;;6125898;23;20030;-86
2022/07/21 10:16:00;;;;;;;12.10;5.13;;;;;;;;;;6125100;23;20058;-85
2022/07/21 10:18:36;;;;;;;11.38;6.10;;;;;;;;;;6126792;23;20018;-85
2022/07/21 10:21:16;;;;;;;13.45;6.75;;;;;;;;;;6125651;23;20820;-86
2022/07/21 10:23:46;;;;;;;11.07;6.28;;;;;;;;;;6125402;23;20065;-86
2022/07/21 10:26:13;;;;;;;9.93;5.90;;;;;;;;;;6125254;23;20022;-86
2022/07/21 10:28:41;;;;;;;7.28;4.95;;;;;;;;;;6126351;23;20380;-86
2022/07/21 10:31:15;;;;;;;14.10;6.20;;;;;;;;;;6125585;23;20056;-85
2022/07/21 10:33:45;;;;;;;9.80;6.40;;;;;;;;;;6123760;23;20018;-86
2022/07/21 10:36:34;;;;;;;11.90;6.47;;;;;;;;;;6125415;23;20050;-85
2022/07/21 10:39:10;;;;;;;6.60;4.82;;;;;;;;;;6125134;23;20748;-85
2022/07/21 10:41:45;;;;;;;8.60;5.80;;;;;;;;;;6125325;23;20779;-86
2022/07/21 10:44:27;;;;;;;10.75;5.60;;;;;;;;;;6124421;23;20015;-86
2022/07/21 10:47:05;;;;;;;9.52;6.13;;;;;;;;;;6123970;23;20053;-86
2022/07/21 10:49:54;;;;;;;8.48;5.60;;;;;;;;;;6124331;23;20022;-86
2022/07/21 10:52:41;;;;;;;9.32;6.32;;;;;;;;;;6127520;23;20069;-86
2022/07/21 10:55:11;;;;;;;9.70;6.45;;;;;;;;;;6127855;23;20819;-86
2022/07/21 10:57:42;;;;;;;9.77;6.18;;;;;;;;;;6128637;23;20026;-86
2022/07/21 11:00:16;;;;;;;11.77;6.95;;;;;;;;;;6126343;23;20054;-85
2022/07/21 11:02:46;;;;;;;10.80;7.10;;;;;;;;;;6126881;23;20027;-86
2022/07/21 11:05:13;;;;;;;12.13;6.88;;;;;;;;;;6127061;23;20027;-86
2022/07/21 11:07:59;;;;;;;11.20;7.38;;;;;;;;;;6127199;23;20077;-85
2022/07/21 11:10:27;;;;;;;12.10;7.07;;;;;;;;;;6128965;23;20023;-86
2022/07/21 11:12:58;;;;;;;11.23;6.85;;;;;;;;;;6127200;23;20072;-85
2022/07/21 11:16:07;;;;;;;10.38;6.70;;;;;;;;;;6127054;23;20026;-85
2022/07/21 11:18:34;;;;;;;9.52;6.30;;;;;;;;;;6107302;23;20099;-85
2022/07/21 11:21:04;;;;;;;13.10;6.90;;;;;;;;;;6127588;23;20022;-86
2022/07/21 11:23:35;;;;;;;10.80;7.45;;;;;;;;;;6126849;23;20105;-86
2022/07/21 11:26:02;;;;;;;11.55;6.53;;;;;;;;;;6125364;23;20027;-86
2022/07/21 11:28:29;;;;;;;14.63;7.07;;;;;;;;;;6126008;23;20118;-85
2022/07/21 11:31:26;;;;;;;10.93;6.57;;;;;;;;;;6127607;23;20053;-85
2022/07/21 11:33:53;;;;;;;10.35;6.90;;;;;;;;;;6113190;23;20101;-86
2022/07/21 11:36:28;;;;;;;11.20;5.80;;;;;;;;;;6126159;23;20018;-85
2022/07/21 11:39:04;;;;;;;18.10;6.88;;;;;;;;;;6127552;23;20027;-85
2022/07/21 11:41:32;;;;;;;9.63;5.80;;;;;;;;;;6126938;23;20034;-85
2022/07/21 11:43:59;;;;;;;11.18;6.07;;;;;;;;;;6127820;23;20034;-85
2022/07/21 11:46:27;;;;;;;12.23;6.60;;;;;;;;;;6126832;23;20014;-86
2022/07/21 11:49:24;;;;;;;11.95;6.15;;;;;;;;;;6127162;23;20030;-85
2022/07/21 11:51:58;;;;;;;11.85;7.10;;;;;;;;;;6098319;23;20026;-85
2022/07/21 11:54:28;;;;;;;11.43;6.72;;;;;;;;;;6128494;23;20094;-85
2022/07/21 11:57:06;;;;;;;10.63;6.65;;;;;;;;;;6129284;23;20524;-86
2022/07/21 11:59:35;;;;;;;14.48;7.78;;;;;;;;;;6125109;23;20106;-85
2022/07/21 12:02:05;;;;;;;14.32;7.13;;;;;;;;;;6126221;23;20060;-85
2022/07/21 12:04:43;;;;;;;14.85;7.47;;;;;;;;;;6124869;23;20033;-88
2022/07/21 12:07:12;;;;;;;12.48;7.60;;;;;;;;;;6124759;23;20371;-86
2022/07/21 12:09:40;;;;;;;14.13;7.10;;;;;;;;;;6126591;23;20030;-85
2022/07/21 12:12:07;;;;;;;18.08;8.20;;;;;;;;;;6125204;23;20083;-85
2022/07/21 12:14:48;;;;;;;16.52;8.45;;;;;;;;;;6125523;23;20028;-85
2022/07/21 12:17:17;;;;;;;21.83;8.82;;;;;;;;;;6126102;23;20023;-85
2022/07/21 12:19:44;;;;;;;10.23;6.55;;;;;;;;;;6126728;23;20026;-85
2022/07/21 12:22:12;;;;;;;12.70;6.72;;;;;;;;;;6126968;23;20018;-84
2022/07/21 12:25:09;;;;;;;16.77;7.22;;;;;;;;;;6127103;23;20023;-85
2022/07/21 12:27:36;;;;;;;12.23;7.00;;;;;;;;;;6108181;23;20761;-85
2022/07/21 12:30:05;;;;;;;9.60;6.70;;;;;;;;;;6127002;23;20789;-84
2022/07/21 12:32:47;;;;;;;12.50;7.55;;;;;;;;;;6127456;23;20860;-84
2022/07/21 12:35:27;;;;;;;10.90;7.75;;;;;;;;;;6122851;23;20027;-84
2022/07/21 12:38:00;;;;;;;11.75;6.75;;;;;;;;;;6125023;23;20109;-84
2022/07/21 12:40:28;;;;;;;12.18;8.23;;;;;;;;;;6126328;23;20023;-84
2022/07/21 12:43:06;;;;;;;16.75;7.90;;;;;;;;;;6126672;23;20019;-84
2022/07/21 12:45:44;;;;;;;12.10;7.38;;;;;;;;;;6126675;23;20098;-84
2022/07/21 12:48:13;;;;;;;13.98;8.23;;;;;;;;;;6127412;23;20026;-84
2022/07/21 12:50:40;;;;;;;9.27;6.50;;;;;;;;;;6126077;23;20401;-84
2022/07/21 12:53:11;;;;;;;9.85;7.22;;;;;;;;;;6127978;23;20041;-84
2022/07/21 12:55:39;;;;;;;9.98;6.35;;;;;;;;;;6124884;23;20077;-84
2022/07/21 12:58:08;;;;;;;9.57;6.13;;;;;;;;;;6127305;23;20078;-84
2022/07/21 13:00:36;;;;;;;15.40;6.90;;;;;;;;;;6126651;23;20030;-84
2022/07/21 13:03:03;;;;;;;10.48;6.30;;;;;;;;;;6128293;23;20026;-84
2022/07/21 13:05:30;;;;;;;10.10;6.25;;;;;;;;;;6127506;23;20030;-84
2022/07/21 13:07:57;;;;;;;10.23;5.53;;;;;;;;;;6125677;23;20030;-84
2022/07/21 13:10:28;;;;;;;8.25;4.75;;;;;;;;;;6126837;23;20026;-84
2022/07/21 13:12:56;;;;;;;10.00;5.35;;;;;;;;;;6125595;23;20081;-84
2022/07/21 13:15:23;;;;;;;9.85;5.78;;;;;;;;;;6127767;23;20026;-84
2022/07/21 13:17:53;;;;;;;8.38;4.82;;;;;;;;;;6127541;23;20025;-84
2022/07/21 13:20:26;;;;;;;6.88;3.80;;;;;;;;;;6126203;23;20015;-85
2022/07/21 13:22:53;;;;;;;8.95;4.15;;;;;;;;;;6126956;23;20022;-85
2022/07/21 13:25:20;;;;;;;7.35;4.20;;;;;;;;;;6127891;23;20098;-84
2022/07/21 13:27:48;;;;;;;7.15;3.58;;;;;;;;;;6125280;23;20019;-84
2022/07/21 13:30:20;;;;;;;11.75;5.00;;;;;;;;;;6126372;23;20719;-83
2022/07/21 13:32:52;;;;;;;7.60;4.13;;;;;;;;;;6125063;23;20041;-85
2022/07/21 13:35:38;;;;;;;12.20;3.45;;;;;;;;;;6127416;23;20332;-84
2022/07/21 13:38:34;;;;;;;8.65;3.30;;;;;;;;;;6125777;23;20030;-84
2022/07/21 13:41:05;;;;;;;10.55;3.50;;;;;;;;;;6127956;23;20019;-84
2022/07/21 13:43:52;;;;;;;6.40;4.10;;;;;;;;;;6126091;23;20029;-84
2022/07/21 13:46:20;;;;;;;6.75;3.55;;;;;;;;;;6124820;23;20141;-84
2022/07/21 13:48:48;;;;;;;7.93;3.70;;;;;;;;;;6123726;23;20032;-84
2022/07/21 13:51:16;;;;;;;6.90;3.65;;;;;;;;;;6132192;23;20062;-84
2022/07/21 13:53:44;;;;;;;9.95;4.10;;;;;;;;;;6132413;23;20030;-84
2022/07/21 13:56:15;;;;;;;8.63;4.15;;;;;;;;;;6130886;23;20011;-84
2022/07/21 13:58:42;;;;;;;7.10;3.55;;;;;;;;;;6127774;23;20069;-84
2022/07/21 14:01:11;;;;;;;14.50;4.57;;;;;;;;;;6121244;23;20566;-84
2022/07/21 14:03:39;;;;;;;9.13;3.50;;;;;;;;;;6127156;23;20014;-83
2022/07/21 14:06:06;;;;;;;7.05;3.60;;;;;;;;;;6126326;23;20062;-84
2022/07/21 14:08:33;;;;;;;5.90;3.28;;;;;;;;;;6124057;23;20468;-84
2022/07/21 14:11:01;;;;;;;6.60;3.20;;;;;;;;;;6126297;23;20499;-84
2022/07/21 14:13:28;;;;;;;9.25;3.08;;;;;;;;;;6125816;23;20078;-84
2022/07/21 14:15:55;;;;;;;5.45;3.03;;;;;;;;;;6126066;23;20027;-83
2022/07/21 14:18:29;;;;;;;8.25;3.47;;;;;;;;;;6126479;23;20026;-83
2022/07/21 14:20:58;;;;;;;7.47;3.05;;;;;;;;;;6126194;23;20050;-83
2022/07/21 14:23:28;;;;;;;6.28;3.17;;;;;;;;;;6125744;23;20019;-82
2022/07/21 14:26:09;;;;;;;7.88;3.75;;;;;;;;;;6126824;23;20030;-82
2022/07/21 14:28:39;;;;;;;10.60;4.43;;;;;;;;;;6127692;23;20109;-83
2022/07/21 14:31:07;;;;;;;10.77;4.50;;;;;;;;;;6127241;23;20524;-82
2022/07/21 14:33:35;;;;;;;13.45;4.30;;;;;;;;;;6127705;23;20029;-81
2022/07/21 14:36:02;;;;;;;13.73;4.28;;;;;;;;;;6128939;23;20740;-82
2022/07/21 14:38:33;;;;;;;10.13;4.65;;;;;;;;;;6127091;23;20030;-82
2022/07/21 14:41:02;;;;;;;9.10;4.63;;;;;;;;;;6127708;23;20577;-82
2022/07/21 14:43:29;;;;;;;8.00;3.92;;;;;;;;;;6128583;23;20046;-81
2022/07/21 14:45:56;;;;;;;6.18;4.10;;;;;;;;;;6127343;23;20026;-82
2022/07/21 14:48:23;;;;;;;10.10;4.57;;;;;;;;;;6125247;23;20851;-82
2022/07/21 14:50:51;;;;;;;12.55;5.10;;;;;;;;;;6129992;23;20022;-82
2022/07/21 14:53:18;;;;;;;8.55;5.28;;;;;;;;;;6126688;23;20114;-82
2022/07/21 14:55:45;;;;;;;7.13;5.13;;;;;;;;;;6127604;23;20066;-82